createdAt,value
2018-07-11T00:12:16.114Z,15.22
2018-07-11T00:13:15.968Z,15.23
2018-07-11T00:15:57.830Z,15.22
2018-07-11T00:16:57.823Z,15.12
2018-07-11T00:17:57.679Z,15.28
2018-07-11T00:18:57.745Z,15.23
2018-07-11T00:19:57.529Z,15.20
2018-07-11T00:20:57.506Z,15.23
2018-07-11T00:21:57.368Z,15.13
2018-07-11T00:22:57.342Z,15.11
2018-07-11T00:23:57.221Z,15.12
2018-07-11T00:26:39.368Z,15.15
2018-07-11T00:27:39.377Z,15.22
2018-07-11T00:28:39.181Z,15.23
2018-07-11T00:29:39.141Z,15.18
2018-07-11T00:30:39.020Z,15.22
2018-07-11T00:31:39.115Z,15.27
2018-07-11T00:32:38.870Z,15.25
2018-07-11T00:33:38.860Z,15.28
2018-07-11T00:34:38.745Z,15.25
2018-07-11T00:35:38.684Z,15.23
2018-07-11T00:36:38.560Z,15.22
2018-07-11T00:39:20.865Z,15.19
2018-07-11T00:40:20.889Z,15.20
2018-07-11T00:41:20.677Z,15.16
2018-07-11T00:42:20.684Z,15.25
2018-07-11T00:43:20.588Z,15.15
2018-07-11T00:44:20.496Z,15.16
2018-07-11T00:45:20.387Z,15.16
2018-07-11T00:46:20.347Z,15.18
2018-07-11T00:47:20.208Z,15.15
2018-07-11T00:55:00.741Z,14.75
2018-07-11T00:56:00.574Z,14.85
2018-07-11T00:57:00.559Z,14.78
2018-07-11T00:58:00.422Z,14.72
2018-07-11T00:59:00.442Z,14.75
2018-07-11T01:00:00.255Z,14.74
2018-07-11T01:01:00.273Z,14.67
2018-07-11T01:02:00.098Z,14.75
2018-07-11T01:04:42.343Z,14.71
2018-07-11T01:05:42.419Z,14.60
2018-07-11T01:06:42.193Z,14.69
2018-07-11T01:07:42.160Z,14.61
2018-07-11T01:08:42.029Z,14.72
2018-07-11T01:09:42.070Z,14.61
2018-07-11T01:10:41.917Z,14.60
2018-07-11T01:11:41.917Z,14.56
2018-07-11T01:12:41.730Z,14.61
2018-07-11T01:13:41.691Z,14.61
2018-07-11T01:14:41.558Z,14.52
2018-07-11T01:15:41.605Z,14.56
2018-07-11T01:16:41.419Z,14.60
2018-07-11T01:17:41.404Z,14.53
2018-07-11T01:18:41.229Z,14.57
2018-07-11T01:19:41.209Z,14.60
2018-07-11T01:20:41.086Z,14.52
2018-07-11T01:21:42.092Z,14.45
2018-07-11T01:22:40.947Z,14.49
2018-07-11T01:23:40.940Z,14.49
2018-07-11T01:24:40.754Z,14.44
2018-07-11T01:25:40.752Z,14.48
2018-07-11T01:26:40.614Z,14.52
2018-07-11T01:27:40.592Z,14.52
2018-07-11T01:28:40.446Z,14.38
2018-07-11T01:29:40.459Z,14.44
2018-07-11T01:30:40.272Z,14.46
2018-07-11T01:31:40.267Z,14.46
2018-07-11T01:32:40.162Z,14.44
2018-07-11T01:33:40.089Z,14.36
2018-07-11T01:34:39.969Z,14.26
2018-07-11T01:35:39.989Z,14.24
2018-07-11T01:36:39.792Z,14.26
2018-07-11T01:37:39.831Z,14.26
2018-07-11T01:38:39.632Z,14.19
2018-07-11T01:39:39.604Z,14.24
2018-07-11T01:40:39.484Z,14.23
2018-07-11T01:41:39.457Z,14.21
2018-07-11T01:42:39.323Z,14.35
2018-07-11T01:43:40.391Z,14.34
2018-07-11T01:44:39.148Z,14.27
2018-07-11T01:45:39.130Z,14.29
2018-07-11T01:46:38.996Z,14.11
2018-07-11T01:47:39.044Z,14.17
2018-07-11T01:48:38.863Z,14.13
2018-07-11T01:49:38.853Z,14.09
2018-07-11T01:50:38.689Z,14.19
2018-07-11T01:51:38.666Z,14.08
2018-07-11T01:52:38.543Z,14.06
2018-07-11T01:53:38.480Z,14.08
2018-07-11T01:54:38.367Z,13.94
2018-07-11T01:55:38.393Z,13.99
2018-07-11T01:56:38.195Z,13.99
2018-07-11T01:57:38.237Z,13.98
2018-07-11T01:58:38.058Z,13.93
2018-07-11T01:59:38.003Z,13.90
2018-07-11T02:00:37.897Z,13.93
2018-07-11T02:01:37.907Z,13.94
2018-07-11T02:02:37.745Z,13.98
2018-07-11T02:03:38.790Z,13.86
2018-07-11T02:04:37.561Z,13.88
2018-07-11T02:05:37.529Z,13.91
2018-07-11T02:06:37.399Z,13.87
2018-07-11T02:09:19.388Z,13.87
2018-07-11T02:10:19.372Z,13.96
2018-07-11T02:11:19.206Z,13.91
2018-07-11T02:12:19.251Z,13.94
2018-07-11T02:13:19.051Z,13.86
2018-07-11T02:16:00.888Z,13.83
2018-07-11T02:17:00.846Z,13.88
2018-07-11T02:18:00.707Z,13.75
2018-07-11T02:19:00.691Z,13.75
2018-07-11T02:20:00.570Z,13.76
2018-07-11T02:21:00.563Z,13.90
2018-07-11T02:22:00.377Z,13.88
2018-07-11T02:24:42.397Z,13.96
2018-07-11T02:25:42.289Z,13.91
2018-07-11T02:26:42.203Z,13.94
2018-07-11T02:29:24.399Z,13.93
2018-07-11T02:30:24.415Z,13.99
2018-07-11T02:31:24.207Z,13.90
2018-07-11T02:32:24.187Z,13.75
2018-07-11T02:33:24.061Z,13.76
2018-07-11T02:36:05.894Z,13.79
2018-07-11T02:37:05.891Z,13.72
2018-07-11T02:38:05.715Z,13.73
2018-07-11T02:39:05.696Z,13.71
2018-07-11T02:40:05.572Z,13.76
2018-07-11T02:41:05.504Z,13.83
2018-07-11T02:42:05.393Z,13.76
2018-07-11T02:43:05.422Z,13.83
2018-07-11T02:44:05.228Z,13.87
2018-07-11T02:45:05.267Z,13.87
2018-07-11T02:46:05.078Z,13.79
2018-07-11T02:47:05.032Z,13.91
2018-07-11T02:48:04.911Z,13.87
2018-07-11T02:49:04.947Z,13.75
2018-07-11T02:50:04.756Z,13.76
2018-07-11T02:51:05.817Z,13.81
2018-07-11T02:52:04.599Z,13.87
2018-07-11T02:53:04.560Z,13.91
2018-07-11T02:54:04.430Z,13.75
2018-07-11T02:55:04.480Z,13.76
2018-07-11T02:56:04.303Z,13.83
2018-07-11T02:57:04.278Z,13.79
2018-07-11T02:58:04.115Z,13.72
2018-07-11T02:59:04.092Z,13.83
2018-07-11T03:00:03.950Z,13.76
2018-07-11T03:01:04.959Z,13.73
2018-07-11T03:02:03.796Z,13.91
2018-07-11T03:03:03.808Z,13.83
2018-07-11T03:04:03.625Z,13.80
2018-07-11T03:06:45.909Z,13.75
2018-07-11T03:07:45.929Z,13.75
2018-07-11T03:08:45.718Z,13.73
2018-07-11T03:09:45.745Z,13.80
2018-07-11T03:10:45.590Z,13.76
2018-07-11T03:11:45.570Z,13.65
2018-07-11T03:12:45.403Z,13.72
2018-07-11T03:13:45.345Z,13.71
2018-07-11T03:14:45.239Z,13.81
2018-07-11T03:17:27.398Z,13.80
2018-07-11T03:18:27.359Z,13.80
2018-07-11T03:19:27.225Z,13.75
2018-07-11T03:20:27.162Z,13.86
2018-07-11T03:21:27.079Z,13.81
2018-07-11T03:22:27.126Z,13.90
2018-07-11T03:23:26.892Z,13.90
2018-07-11T03:24:26.894Z,13.86
2018-07-11T03:25:26.749Z,13.71
2018-07-11T03:26:26.692Z,13.87
2018-07-11T03:27:26.615Z,13.86
2018-07-11T03:30:08.898Z,13.81
2018-07-11T03:31:08.916Z,13.75
2018-07-11T03:32:08.900Z,13.90
2018-07-11T03:33:08.732Z,13.88
2018-07-11T03:34:08.561Z,13.84
2018-07-11T03:35:08.530Z,13.88
2018-07-11T03:36:08.408Z,13.86
2018-07-11T03:37:08.435Z,13.88
2018-07-11T03:38:08.275Z,13.84
2018-07-11T03:39:08.242Z,13.98
2018-07-11T03:40:08.089Z,13.96
2018-07-11T03:41:08.049Z,13.93
2018-07-11T03:42:07.924Z,13.96
2018-07-11T03:43:07.887Z,13.93
2018-07-11T03:44:07.764Z,13.86
2018-07-11T03:45:07.774Z,13.99
2018-07-11T03:46:07.617Z,13.93
2018-07-11T03:48:49.907Z,13.86
2018-07-11T03:49:49.886Z,13.81
2018-07-11T03:50:49.724Z,13.84
2018-07-11T03:51:49.697Z,13.84
2018-07-11T03:52:49.563Z,13.86
2018-07-11T03:53:49.547Z,13.84
2018-07-11T03:54:49.424Z,13.86
2018-07-11T03:55:49.407Z,13.86
2018-07-11T03:56:49.254Z,13.86
2018-07-11T03:57:49.231Z,13.91
2018-07-11T03:58:49.120Z,13.83
2018-07-11T03:59:49.138Z,13.84
2018-07-11T04:00:48.926Z,13.83
2018-07-11T04:01:48.940Z,13.86
2018-07-11T04:02:48.766Z,13.84
2018-07-11T04:03:48.785Z,13.91
2018-07-11T04:04:48.684Z,13.84
2018-07-11T04:05:48.560Z,13.90
2018-07-11T04:06:48.452Z,13.94
2018-07-11T04:07:48.473Z,13.91
2018-07-11T04:08:48.306Z,13.98
2018-07-11T04:09:48.277Z,14.04
2018-07-11T04:10:48.159Z,14.16
2018-07-11T04:11:48.085Z,14.12
2018-07-11T04:12:47.989Z,14.08
2018-07-11T04:13:48.006Z,14.21
2018-07-11T04:14:47.828Z,14.29
2018-07-11T04:17:29.889Z,14.29
2018-07-11T04:20:11.928Z,14.36
2018-07-11T04:21:11.917Z,14.38
2018-07-11T04:22:11.742Z,14.41
2018-07-11T04:24:53.902Z,14.60
2018-07-11T04:25:53.978Z,14.63
2018-07-11T04:26:53.871Z,14.61
2018-07-11T04:29:35.909Z,14.72
2018-07-11T04:30:36.893Z,14.78
2018-07-11T04:31:35.743Z,14.83
2018-07-11T04:32:35.728Z,14.98
2018-07-11T04:33:35.592Z,15.03
2018-07-11T04:34:35.612Z,15.07
2018-07-11T04:35:35.451Z,15.05
2018-07-11T04:36:35.454Z,15.11
2018-07-11T04:37:35.253Z,15.12
2018-07-11T04:38:35.222Z,15.01
2018-07-11T04:39:35.089Z,15.03
2018-07-11T04:40:35.031Z,14.98
2018-07-11T04:41:34.957Z,14.94
2018-07-11T04:44:16.898Z,14.97
2018-07-11T04:45:16.861Z,15.07
2018-07-11T04:46:16.771Z,15.05
2018-07-11T04:47:16.700Z,15.04
2018-07-11T04:48:16.582Z,15.00
2018-07-11T04:49:16.507Z,15.11
2018-07-11T04:50:16.424Z,15.15
2018-07-11T04:52:58.420Z,15.41
2018-07-11T04:53:58.337Z,15.41
2018-07-11T04:54:58.245Z,15.40
2018-07-11T04:57:40.428Z,15.41
2018-07-11T04:58:40.327Z,15.48
2018-07-11T04:59:40.237Z,15.44
2018-07-11T05:02:22.420Z,15.74
2018-07-11T05:03:22.324Z,15.67
2018-07-11T05:04:22.241Z,15.73
2018-07-11T05:05:22.171Z,15.64
2018-07-11T05:21:20.360Z,15.35
2018-07-11T05:22:20.093Z,15.27
2018-07-11T05:23:20.037Z,15.23
2018-07-11T05:24:19.942Z,15.23
2018-07-11T05:25:19.882Z,15.38
2018-07-11T05:26:19.773Z,15.35
2018-07-11T05:27:19.705Z,15.51
2018-07-11T05:28:19.655Z,15.46
2018-07-11T05:29:19.544Z,15.58
2018-07-11T05:30:19.470Z,15.56
2018-07-11T05:31:19.403Z,15.68
2018-07-11T05:32:19.299Z,15.58
2018-07-11T05:33:19.224Z,15.44
2018-07-11T05:34:19.156Z,15.49
2018-07-11T05:35:19.086Z,15.55
2018-07-11T05:36:19.054Z,15.56
2018-07-11T05:37:18.924Z,15.64
2018-07-11T05:38:18.827Z,15.76
2018-07-11T05:39:19.762Z,15.76
2018-07-11T05:40:18.664Z,15.71
2018-07-11T05:41:18.601Z,15.67
2018-07-11T05:42:18.506Z,15.81
2018-07-11T05:43:18.430Z,15.95
2018-07-11T05:44:18.375Z,15.96
2018-07-11T05:45:18.266Z,15.99
2018-07-11T05:46:18.187Z,16.10
2018-07-11T05:47:18.113Z,16.06
2018-07-11T05:48:18.113Z,16.04
2018-07-11T05:49:17.997Z,16.17
2018-07-11T05:50:17.881Z,16.17
2018-07-11T05:51:17.798Z,16.33
2018-07-11T05:52:17.720Z,16.14
2018-07-11T05:53:17.633Z,16.18
2018-07-11T05:54:17.552Z,16.29
2018-07-11T05:55:17.520Z,16.37
2018-07-11T05:56:17.397Z,16.22
2018-07-11T05:57:17.328Z,16.25
2018-07-11T05:58:17.230Z,16.25
2018-07-11T06:00:59.435Z,16.27
2018-07-11T06:03:41.422Z,16.33
2018-07-11T06:04:41.342Z,16.42
2018-07-11T06:05:41.291Z,16.44
2018-07-11T06:08:23.424Z,16.36
2018-07-11T06:09:23.365Z,16.26
2018-07-11T06:10:23.281Z,16.34
2018-07-11T06:11:23.282Z,16.40
2018-07-11T06:12:23.124Z,16.41
2018-07-11T06:13:23.089Z,16.45
2018-07-11T06:14:22.965Z,16.51
2018-07-11T06:15:22.863Z,16.57
2018-07-11T06:16:22.817Z,16.57
2018-07-11T06:17:22.753Z,16.78
2018-07-11T06:18:22.629Z,16.84
2018-07-11T06:19:22.577Z,16.91
2018-07-11T06:20:22.485Z,16.90
2018-07-11T06:21:22.390Z,16.90
2018-07-11T06:22:22.322Z,17.00
2018-07-11T06:23:22.233Z,17.03
2018-07-11T06:24:22.164Z,16.96
2018-07-11T06:25:22.174Z,16.81
2018-07-11T06:26:21.997Z,16.75
2018-07-11T06:27:21.935Z,16.62
2018-07-11T06:28:21.844Z,16.80
2018-07-11T06:29:21.801Z,16.95
2018-07-11T06:30:21.693Z,17.00
2018-07-11T06:31:21.635Z,17.14
2018-07-11T06:32:21.517Z,17.47
2018-07-11T06:36:45.268Z,20.85
2018-07-11T06:37:45.223Z,21.27
2018-07-11T06:38:45.086Z,21.42
2018-07-11T06:39:44.991Z,21.27
2018-07-11T06:40:44.921Z,21.75
2018-07-11T06:41:44.855Z,22.41
2018-07-11T06:42:44.764Z,22.66
2018-07-11T06:43:44.678Z,22.67
2018-07-11T06:46:26.960Z,22.57
2018-07-11T06:47:27.897Z,23.09
2018-07-11T06:48:26.786Z,23.49
2018-07-11T06:49:26.705Z,24.15
2018-07-11T06:50:26.619Z,24.27
2018-07-11T06:51:26.557Z,24.46
2018-07-11T06:52:26.507Z,24.42
2018-07-11T06:53:26.406Z,23.94
2018-07-11T06:54:26.335Z,23.97
2018-07-11T06:55:26.249Z,23.81
2018-07-11T06:56:26.180Z,23.96
2018-07-11T06:57:26.146Z,24.04
2018-07-11T06:58:26.018Z,24.11
2018-07-11T06:59:25.975Z,24.12
2018-07-11T07:00:25.883Z,24.48
2018-07-11T07:01:25.808Z,23.63
2018-07-11T07:02:25.798Z,23.31
2018-07-11T07:05:08.084Z,23.04
2018-07-11T07:06:07.888Z,23.57
2018-07-11T07:07:07.790Z,23.57
2018-07-11T07:08:07.724Z,23.69
2018-07-11T07:09:07.669Z,24.11
2018-07-11T07:10:07.627Z,24.53
2018-07-11T07:11:07.511Z,23.68
2018-07-11T07:12:07.424Z,23.47
2018-07-11T07:13:07.377Z,23.32
2018-07-11T07:14:08.318Z,23.26
2018-07-11T07:15:07.206Z,23.62
2018-07-11T07:16:07.134Z,23.19
2018-07-11T07:17:07.052Z,22.15
2018-07-11T07:18:07.020Z,22.46
2018-07-11T07:19:06.902Z,22.39
2018-07-11T07:20:07.859Z,23.00
2018-07-11T07:21:06.766Z,23.26
2018-07-11T07:23:48.990Z,23.99
2018-07-11T07:24:48.895Z,23.97
2018-07-11T07:25:48.800Z,23.96
2018-07-11T07:26:48.738Z,23.81
2018-07-11T07:27:48.655Z,24.66
2018-07-11T07:28:48.630Z,24.70
2018-07-11T07:29:48.517Z,24.64
2018-07-11T07:30:48.499Z,23.97
2018-07-11T07:31:48.365Z,24.00
2018-07-11T07:34:30.479Z,25.11
2018-07-11T07:35:30.404Z,25.49
2018-07-11T07:36:30.308Z,25.64
2018-07-11T07:37:30.263Z,25.07
2018-07-11T07:38:30.195Z,25.34
2018-07-11T07:39:30.118Z,25.30
2018-07-11T07:40:30.052Z,26.01
2018-07-11T07:41:29.964Z,26.12
2018-07-11T07:42:29.883Z,25.96
2018-07-11T07:43:29.827Z,25.67
2018-07-11T07:44:29.777Z,25.89
2018-07-11T07:45:29.662Z,25.85
2018-07-11T07:46:29.592Z,25.75
2018-07-11T07:47:29.540Z,24.82
2018-07-11T07:48:29.480Z,24.68
2018-07-11T07:49:29.413Z,24.90
2018-07-11T07:50:29.308Z,25.39
2018-07-11T07:51:29.253Z,25.34
2018-07-11T07:52:29.175Z,25.30
2018-07-11T07:53:29.103Z,24.42
2018-07-11T07:54:29.063Z,23.62
2018-07-11T07:55:28.960Z,23.79
2018-07-11T07:56:28.900Z,24.66
2018-07-11T07:57:28.814Z,25.41
2018-07-11T07:58:28.743Z,25.81
2018-07-11T07:59:28.678Z,26.21
2018-07-11T08:00:28.628Z,26.49
2018-07-11T08:03:10.472Z,25.39
2018-07-11T08:04:10.438Z,26.11
2018-07-11T08:05:10.369Z,26.64
2018-07-11T08:06:10.285Z,27.23
2018-07-11T08:07:10.190Z,27.53
2018-07-11T08:09:52.475Z,27.28
2018-07-11T08:10:52.430Z,26.73
2018-07-11T08:11:52.323Z,25.76
2018-07-11T08:12:52.264Z,25.94
2018-07-11T08:13:52.182Z,26.09
2018-07-11T08:16:34.502Z,25.59
2018-07-11T08:17:34.403Z,26.16
2018-07-11T08:18:34.329Z,26.41
2018-07-11T08:19:34.272Z,25.66
2018-07-11T08:20:34.270Z,25.45
2018-07-11T08:21:34.218Z,24.06
2018-07-11T08:22:34.092Z,24.74
2018-07-11T08:25:15.968Z,25.94
2018-07-11T08:26:15.924Z,26.49
2018-07-11T08:27:15.845Z,26.84
2018-07-11T08:28:15.785Z,27.31
2018-07-11T08:29:15.696Z,27.58
2018-07-11T08:31:58.001Z,25.69
2018-07-11T08:32:57.956Z,24.74
2018-07-11T08:33:57.843Z,23.94
2018-07-11T08:34:57.802Z,23.49
2018-07-11T08:35:57.711Z,22.76
2018-07-11T08:36:57.674Z,22.86
2018-07-11T08:37:57.568Z,22.52
2018-07-11T08:38:57.495Z,23.59
2018-07-11T08:39:57.417Z,24.23
2018-07-11T08:42:39.525Z,25.49
2018-07-11T08:43:39.429Z,25.71
2018-07-11T08:44:39.357Z,26.32
2018-07-11T08:45:39.291Z,26.72
2018-07-11T08:46:39.197Z,26.91
2018-07-11T08:47:39.210Z,26.24
2018-07-11T08:48:39.053Z,24.41
2018-07-11T08:49:38.989Z,24.82
2018-07-11T08:50:38.923Z,25.74
2018-07-11T08:51:38.857Z,25.61
2018-07-11T08:52:38.803Z,25.42
2018-07-11T08:53:38.706Z,25.78
2018-07-11T08:54:38.637Z,25.29
2018-07-11T08:55:38.569Z,25.63
2018-07-11T08:56:38.499Z,25.56
2018-07-11T08:57:38.421Z,25.45
2018-07-11T08:58:38.381Z,25.63
2018-07-11T08:59:38.297Z,25.98
2018-07-11T09:00:38.213Z,26.56
2018-07-11T09:01:38.198Z,26.11
2018-07-11T09:02:38.109Z,25.14
2018-07-11T09:03:39.031Z,24.86
2018-07-11T09:04:37.935Z,25.34
2018-07-11T09:05:37.868Z,24.59
2018-07-11T09:06:37.815Z,24.80
2018-07-11T09:07:37.723Z,24.46
2018-07-11T09:08:37.668Z,24.59
2018-07-11T09:09:38.619Z,24.15
2018-07-11T09:10:37.548Z,24.23
2018-07-11T09:11:37.448Z,24.21
2018-07-11T09:12:37.383Z,23.69
2018-07-11T09:13:37.338Z,23.52
2018-07-11T09:14:37.259Z,23.39
2018-07-11T09:15:37.170Z,23.26
2018-07-11T09:16:37.098Z,22.93
2018-07-11T09:17:37.026Z,22.63
2018-07-11T09:18:36.938Z,22.72
2018-07-11T09:19:36.905Z,23.39
2018-07-11T09:20:36.835Z,24.08
2018-07-11T09:23:18.988Z,24.92
2018-07-11T09:24:18.938Z,25.72
2018-07-11T09:25:18.850Z,26.66
2018-07-11T09:26:18.801Z,27.24
2018-07-11T09:27:18.720Z,27.33
2018-07-11T09:30:01.029Z,28.08
2018-07-11T09:32:43.007Z,28.06
2018-07-11T09:33:42.930Z,28.80
2018-07-11T09:34:42.962Z,28.72
2018-07-11T09:35:42.794Z,27.13
2018-07-11T09:36:42.728Z,27.31
2018-07-11T09:37:42.706Z,27.02
2018-07-11T09:38:42.578Z,26.53
2018-07-11T09:39:42.512Z,27.83
2018-07-11T09:40:42.472Z,28.48
2018-07-11T09:41:43.427Z,27.91
2018-07-11T09:42:42.314Z,27.61
2018-07-11T09:43:42.257Z,28.52
2018-07-11T09:44:42.175Z,27.72
2018-07-11T09:45:42.130Z,26.08
2018-07-11T09:46:42.086Z,25.93
2018-07-11T09:47:41.981Z,26.17
2018-07-11T09:48:41.919Z,26.88
2018-07-11T09:49:41.864Z,26.56
2018-07-11T09:50:41.791Z,26.03
2018-07-11T09:53:24.002Z,25.16
2018-07-11T09:56:06.073Z,24.80
2018-07-11T09:57:05.945Z,24.53
2018-07-11T09:58:06.019Z,24.26
2018-07-11T10:00:48.007Z,23.96
2018-07-11T10:01:47.952Z,23.96
2018-07-11T10:02:47.889Z,23.74
2018-07-11T10:03:47.824Z,23.71
2018-07-11T10:04:47.749Z,23.89
2018-07-11T10:05:47.693Z,23.69
2018-07-11T10:06:47.586Z,23.93
2018-07-11T10:07:48.539Z,24.31
2018-07-11T10:08:47.444Z,24.39
2018-07-11T10:09:47.375Z,24.12
2018-07-11T10:10:47.298Z,24.68
2018-07-11T10:11:47.234Z,25.07
2018-07-11T10:12:47.158Z,24.79
2018-07-11T10:13:48.106Z,24.49
2018-07-11T10:14:47.006Z,25.04
2018-07-11T10:15:47.032Z,25.76
2018-07-11T10:16:46.865Z,26.97
2018-07-11T10:17:46.813Z,27.69
2018-07-11T10:18:46.780Z,26.94
2018-07-11T10:19:46.673Z,26.64
2018-07-11T10:20:46.586Z,26.71
2018-07-11T10:23:28.550Z,25.09
2018-07-11T10:24:28.451Z,24.61
2018-07-11T10:25:28.403Z,24.11
2018-07-11T10:28:10.558Z,23.63
2018-07-11T10:29:10.458Z,23.59
2018-07-11T10:30:10.471Z,23.53
2018-07-11T10:32:52.519Z,25.71
2018-07-11T10:33:52.457Z,26.11
2018-07-11T10:34:52.396Z,25.71
2018-07-11T10:35:52.312Z,25.97
2018-07-11T10:36:52.237Z,26.12
2018-07-11T10:37:52.180Z,26.08
2018-07-11T10:38:52.106Z,26.79
2018-07-11T10:39:52.024Z,27.81
2018-07-11T10:40:51.947Z,27.96
2018-07-11T10:41:51.884Z,28.46
2018-07-11T10:42:51.807Z,28.69
2018-07-11T10:43:51.769Z,28.48
2018-07-11T10:44:51.678Z,28.01
2018-07-11T10:45:51.620Z,28.57
2018-07-11T10:46:51.538Z,29.00
2018-07-11T10:47:51.474Z,28.69
2018-07-11T10:48:51.489Z,27.13
2018-07-11T10:49:51.337Z,26.46
2018-07-11T10:50:51.247Z,25.97
2018-07-11T10:51:51.214Z,25.61
2018-07-11T10:52:51.109Z,24.84
2018-07-11T10:55:33.052Z,27.12
2018-07-11T10:56:32.975Z,27.91
2018-07-11T10:57:32.939Z,28.40
2018-07-11T11:00:35.966Z,28.80
2018-07-11T11:02:57.065Z,28.48
2018-07-11T11:03:56.973Z,27.71
2018-07-11T11:04:56.966Z,26.81
2018-07-11T11:05:56.841Z,26.04
2018-07-11T11:06:56.771Z,25.86
2018-07-11T11:07:56.759Z,25.45
2018-07-11T11:08:56.659Z,25.24
2018-07-11T11:09:56.569Z,25.61
2018-07-11T11:10:56.532Z,26.68
2018-07-11T11:13:38.532Z,27.84
2018-07-11T11:14:38.524Z,27.58
2018-07-11T11:15:38.408Z,27.66
2018-07-11T11:16:38.387Z,27.66
2018-07-11T11:17:38.270Z,27.27
2018-07-11T11:18:38.218Z,26.27
2018-07-11T11:19:38.122Z,25.49
2018-07-11T11:20:38.067Z,25.46
2018-07-11T11:21:38.019Z,25.45
2018-07-11T11:24:20.063Z,26.46
2018-07-11T11:25:19.970Z,27.01
2018-07-11T11:26:19.920Z,26.53
2018-07-11T11:27:19.866Z,26.29
2018-07-11T11:28:19.772Z,26.24
2018-07-11T11:31:02.054Z,25.20
2018-07-11T11:32:02.127Z,24.98
2018-07-11T11:33:01.932Z,24.70
2018-07-11T11:34:01.851Z,24.30
2018-07-11T11:35:01.800Z,24.19
2018-07-11T11:37:44.073Z,24.14
2018-07-11T11:38:43.990Z,24.00
2018-07-11T11:39:43.902Z,23.79
2018-07-11T11:40:43.869Z,23.54
2018-07-11T11:41:43.873Z,23.53
2018-07-11T11:42:43.761Z,23.60
2018-07-11T11:43:43.640Z,23.56
2018-07-11T11:44:43.576Z,23.86
2018-07-11T11:45:43.482Z,23.81
2018-07-11T11:48:25.557Z,23.63
2018-07-11T11:49:25.511Z,23.63
2018-07-11T11:50:25.410Z,23.89
2018-07-11T11:53:07.565Z,25.20
2018-07-11T11:54:07.490Z,25.57
2018-07-11T11:55:07.405Z,26.06
2018-07-11T11:56:07.368Z,25.42
2018-07-11T11:57:07.268Z,25.60
2018-07-11T11:58:08.230Z,26.19
2018-07-11T11:59:07.115Z,25.89
2018-07-11T12:00:07.047Z,26.20
2018-07-11T12:01:06.968Z,26.56
2018-07-11T12:02:06.896Z,26.68
2018-07-11T12:03:06.832Z,26.73
2018-07-11T12:04:06.793Z,26.71
2018-07-11T12:05:06.693Z,26.39
2018-07-11T12:06:06.611Z,25.93
2018-07-11T12:07:06.589Z,25.93
2018-07-11T12:08:06.484Z,25.86
2018-07-11T12:09:06.441Z,26.20
2018-07-11T12:10:07.344Z,26.72
2018-07-11T12:11:06.249Z,26.93
2018-07-11T12:12:06.188Z,26.35
2018-07-11T12:13:06.106Z,26.42
2018-07-11T12:15:48.095Z,25.96
2018-07-11T12:16:48.011Z,26.21
2018-07-11T12:17:47.966Z,26.23
2018-07-11T12:18:47.874Z,26.21
2018-07-11T12:19:47.793Z,25.91
2018-07-11T12:20:47.724Z,25.91
2018-07-11T12:21:47.638Z,25.42
2018-07-11T12:24:29.567Z,25.72
2018-07-11T12:25:30.549Z,25.44
2018-07-11T12:26:29.439Z,25.69
2018-07-11T12:27:29.366Z,25.82
2018-07-11T12:28:29.301Z,25.66
2018-07-11T12:31:11.587Z,26.21
2018-07-11T12:33:53.590Z,25.60
2018-07-11T12:34:53.507Z,25.45
2018-07-11T12:35:53.431Z,25.46
2018-07-11T12:36:53.369Z,25.48
2018-07-11T12:37:53.293Z,25.30
2018-07-11T12:40:35.606Z,25.63
2018-07-11T12:41:35.503Z,25.60
2018-07-11T12:42:35.436Z,25.57
2018-07-11T12:43:35.423Z,25.63
2018-07-11T12:44:35.295Z,25.69
2018-07-11T12:45:35.233Z,25.64
2018-07-11T12:46:35.169Z,25.49
2018-07-11T12:47:35.084Z,25.53
2018-07-11T12:48:34.987Z,25.49
2018-07-11T12:49:34.924Z,25.59
2018-07-11T12:50:34.848Z,24.80
2018-07-11T12:51:34.797Z,24.71
2018-07-11T12:52:34.695Z,24.63
2018-07-11T12:55:16.602Z,24.77
2018-07-11T12:56:16.548Z,24.86
2018-07-11T12:57:16.473Z,24.93
2018-07-11T12:59:58.582Z,24.93
2018-07-11T13:00:58.541Z,25.07
2018-07-11T13:01:58.449Z,24.80
2018-07-11T13:02:58.365Z,24.82
2018-07-11T13:03:58.289Z,24.80
2018-07-11T13:04:58.227Z,24.59
2018-07-11T13:05:58.139Z,24.56
2018-07-11T13:06:59.148Z,24.59
2018-07-11T13:07:58.005Z,24.68
2018-07-11T13:08:57.952Z,24.79
2018-07-11T13:09:57.849Z,24.92
2018-07-11T13:10:57.848Z,24.92
2018-07-11T13:11:57.725Z,25.16
2018-07-11T13:12:57.644Z,25.42
2018-07-11T13:13:57.559Z,25.57
2018-07-11T13:14:57.479Z,25.60
2018-07-11T13:15:57.448Z,25.53
2018-07-11T13:16:57.354Z,25.41
2018-07-11T13:17:57.255Z,25.11
2018-07-11T13:18:57.182Z,25.04
2018-07-11T13:19:57.112Z,24.74
2018-07-11T13:20:57.044Z,24.79
2018-07-11T13:21:56.974Z,24.77
2018-07-11T13:22:56.984Z,24.83
2018-07-11T13:23:56.800Z,24.86
2018-07-11T13:26:39.092Z,24.51
2018-07-11T13:27:39.074Z,24.37
2018-07-11T13:28:38.960Z,24.26
2018-07-11T13:29:38.887Z,24.27
2018-07-11T13:30:38.822Z,24.14
2018-07-11T13:33:21.135Z,24.04
2018-07-11T13:36:03.105Z,23.97
2018-07-11T13:37:03.031Z,23.99
2018-07-11T13:38:02.975Z,23.90
2018-07-11T13:39:02.878Z,23.87
2018-07-11T13:40:02.801Z,23.81
2018-07-11T13:41:02.740Z,23.67
2018-07-11T13:42:02.656Z,23.54
2018-07-11T13:43:02.592Z,23.60
2018-07-11T13:44:02.617Z,23.57
2018-07-11T13:45:02.428Z,23.54
2018-07-11T13:46:02.381Z,23.52
2018-07-11T13:47:02.278Z,23.52
2018-07-11T13:48:02.201Z,23.41
2018-07-11T13:49:02.162Z,23.37
2018-07-11T13:50:02.050Z,23.29
2018-07-11T13:52:44.103Z,23.21
2018-07-11T13:53:44.082Z,23.18
2018-07-11T13:54:43.969Z,23.19
2018-07-11T13:55:43.890Z,23.22
2018-07-11T13:56:43.793Z,23.21
2018-07-11T13:57:43.735Z,23.16
2018-07-11T13:58:43.838Z,23.19
2018-07-11T14:01:25.608Z,23.15
2018-07-11T14:02:25.529Z,23.18
2018-07-11T14:03:25.447Z,23.23
2018-07-11T14:04:25.463Z,23.34
2018-07-11T14:05:25.315Z,23.41
2018-07-11T14:06:25.241Z,23.38
2018-07-11T14:07:25.170Z,23.47
2018-07-11T14:10:07.135Z,23.26
2018-07-11T14:11:07.056Z,23.32
2018-07-11T14:12:06.975Z,23.29
2018-07-11T14:13:06.894Z,23.25
2018-07-11T14:14:06.848Z,23.14
2018-07-11T14:15:06.760Z,23.06
2018-07-11T14:16:06.670Z,22.94
2018-07-11T14:18:48.620Z,22.89
2018-07-11T14:19:49.592Z,22.49
2018-07-11T14:20:48.451Z,22.42
2018-07-11T14:21:48.400Z,22.35
2018-07-11T14:22:48.318Z,22.29
2018-07-11T14:23:48.242Z,22.15
2018-07-11T14:24:48.193Z,22.17
2018-07-11T14:27:30.105Z,22.21
2018-07-11T14:30:12.131Z,22.02
2018-07-11T14:31:12.056Z,21.82
2018-07-11T14:32:11.957Z,21.83
2018-07-11T14:33:11.888Z,21.59
2018-07-11T14:34:11.804Z,21.48
2018-07-11T14:35:12.754Z,21.40
2018-07-11T14:36:11.673Z,21.38
2018-07-11T14:37:11.587Z,21.18
2018-07-11T14:38:11.507Z,21.01
2018-07-11T14:39:11.447Z,20.68
2018-07-11T14:40:11.352Z,20.66
2018-07-11T14:41:11.293Z,20.61
2018-07-11T14:42:11.188Z,20.61
2018-07-11T14:43:11.122Z,20.60
2018-07-11T14:44:11.040Z,20.48
2018-07-11T14:45:10.968Z,20.37
2018-07-11T14:46:10.901Z,20.30
2018-07-11T14:47:10.798Z,20.17
2018-07-11T14:48:10.723Z,20.05
2018-07-11T14:49:10.667Z,20.15
2018-07-11T14:50:10.588Z,20.05
2018-07-11T14:51:10.527Z,20.07
2018-07-11T14:52:10.436Z,20.02
2018-07-11T14:53:10.370Z,20.08
2018-07-11T14:54:10.277Z,20.05
2018-07-11T14:55:10.187Z,20.05
2018-07-11T14:56:10.131Z,20.16
2018-07-11T14:57:10.096Z,20.16
2018-07-11T14:58:10.006Z,20.10
2018-07-11T14:59:09.874Z,20.07
2018-07-11T15:00:09.784Z,20.12
2018-07-11T15:01:09.714Z,20.12
2018-07-11T15:02:09.658Z,20.13
2018-07-11T15:03:09.571Z,20.07
2018-07-11T15:04:09.518Z,20.17
2018-07-11T15:05:09.408Z,20.15
2018-07-11T15:06:09.331Z,20.13
2018-07-11T15:07:09.281Z,19.97
2018-07-11T15:08:09.209Z,19.94
2018-07-11T15:09:09.323Z,19.97
2018-07-11T15:10:09.021Z,20.05
2018-07-11T15:11:08.937Z,20.13
2018-07-11T15:12:08.884Z,20.15
2018-07-11T15:13:08.785Z,20.08
2018-07-11T15:14:08.746Z,20.12
2018-07-11T15:15:08.702Z,20.38
2018-07-11T15:16:08.547Z,20.35
2018-07-11T15:17:08.509Z,20.53
2018-07-11T15:18:08.382Z,20.60
2018-07-11T15:19:08.315Z,20.61
2018-07-11T15:20:08.225Z,20.75
2018-07-11T15:21:08.157Z,20.90
2018-07-11T15:22:08.101Z,21.06
2018-07-11T15:23:08.036Z,21.15
2018-07-11T15:24:07.930Z,21.21